Benchley, Texas
Current Conditions -  °F | °C
As of 7:53 AM on Friday 19 Dec 2014 (Local Time) from KCLL Reporting Station
Light Rain Light Rain  
Wind Chill: 50°   Ceiling: 900
Heat Index: 50°   Visibility: 8mi
Dew Point: 48°   Wind: 17mph
Humidity: 93%   Direction: 350°N
Pressure: 30.13"   Gusts: 25mph
Location:  30.6361°N, 96.3666°W
Report Text: KCLL 191353Z 35015G22KT 8SM -RA BKN009 OVC021 10/09 A3013 RMK AO2 CIG 006V013 PRESRR SLP201 P0015 T01000089
Loading
Personal Weather Stations






























Interactive Weather Map New forecast layout! Learn more

10-Day Weather Forecast

Advertisements
Track Severe Weather on mobile